Terminal Aerodrome Forecast
Issued by NWS

Home | Current Version | Previous Version | Text Only | Print | Product List | Glossary On
Versions: 1 2 3 4 5 6 7 8 9 10 11 12
000
FTUS45 KVEF 191100
TAFEED
TAF
KEED 191122Z 1912/2012 VRB05KT P6SM BKN100 OVC150
     FM191900 13007KT P6SM SCT100 BKN150
     FM200200 24006KT P6SM SCT120=

USA.gov is the U.S. government's official web portal to all federal, state and local government web resources and services.